Time;durP1;ratioP1;P1;durP2;ratioP2;P2;SDS_P1;SDS_P2;PMS_P1;PMS_P2;Temp;Humidity;BMP_temperature;BMP_pressure;BME280_temperature;BME280_humidity;BME280_pressure;Samples;Min_cycle;Max_cycle;Signal;HPM_P1;HPM_P2
2022/06/19 00:02:23;;;;;;;4.80;4.10;;;;;;;20.04;59.33;99941.45;130332;1268;109191;-74
2022/06/19 00:05:28;;;;;;;4.90;4.20;;;;;;;20.06;59.41;99945.94;130393;1268;107555;-74
2022/06/19 00:08:34;;;;;;;5.00;4.10;;;;;;;20.04;59.49;99945.74;130262;1268;108836;-74
2022/06/19 00:11:40;;;;;;;5.30;3.90;;;;;;;20.03;59.61;99945.42;130297;1268;108800;-75
2022/06/19 00:14:45;;;;;;;5.10;4.50;;;;;;;20.00;59.66;99946.90;130170;1268;108659;-75
2022/06/19 00:17:50;;;;;;;5.10;4.30;;;;;;;19.96;59.83;99947.42;130281;1268;108806;-73
2022/06/19 00:20:57;;;;;;;5.10;4.20;;;;;;;19.93;59.92;99946.05;130351;1268;109139;-75
2022/06/19 00:24:02;;;;;;;5.50;4.20;;;;;;;19.90;60.05;99948.48;130360;1268;108960;-74
2022/06/19 00:27:08;;;;;;;5.20;4.40;;;;;;;19.86;60.18;99944.20;130346;1268;108586;-74
2022/06/19 00:30:16;;;;;;;5.80;3.80;;;;;;;19.83;60.29;99947.14;130240;1268;108900;-73
2022/06/19 00:33:21;;;;;;;5.80;4.20;;;;;;;19.79;60.38;99943.00;130305;1268;108755;-76
2022/06/19 00:36:27;;;;;;;4.50;3.80;;;;;;;19.79;60.44;99939.14;130278;1268;108898;-75
2022/06/19 00:39:39;;;;;;;10.20;4.10;;;;;;;19.81;60.48;99940.91;130314;1267;108780;-75
2022/06/19 00:42:44;;;;;;;4.80;3.70;;;;;;;19.85;60.63;99948.74;130337;1268;109055;-76
2022/06/19 00:45:50;;;;;;;4.90;3.80;;;;;;;19.87;60.58;99952.27;130248;1268;108695;-74
2022/06/19 00:48:55;;;;;;;5.00;4.40;;;;;;;19.86;60.69;99947.45;130295;1268;108809;-75
2022/06/19 00:52:09;;;;;;;5.50;4.30;;;;;;;19.85;60.81;99945.41;130271;1268;108846;-74
2022/06/19 00:55:19;;;;;;;5.60;4.30;;;;;;;19.81;60.83;99945.23;130299;1268;108994;-74
2022/06/19 00:58:32;;;;;;;5.50;3.70;;;;;;;19.77;61.00;99943.48;130305;1268;108682;-74
2022/06/19 01:01:38;;;;;;;4.80;4.30;;;;;;;19.71;61.02;99943.09;130293;1268;108804;-74
2022/06/19 01:04:47;;;;;;;6.10;4.20;;;;;;;19.68;61.17;99941.67;130289;1268;108509;-74
2022/06/19 01:07:53;;;;;;;5.90;4.10;;;;;;;19.66;61.29;99943.30;130285;1268;108834;-75
2022/06/19 01:10:58;;;;;;;4.40;3.60;;;;;;;19.62;61.30;99942.77;130362;1268;109105;-74
2022/06/19 01:14:04;;;;;;;5.20;3.70;;;;;;;19.58;61.41;99943.10;130315;1268;108763;-75
2022/06/19 01:17:11;;;;;;;4.20;3.80;;;;;;;19.59;61.43;99951.04;130258;1268;108736;-75
2022/06/19 01:20:16;;;;;;;4.60;3.70;;;;;;;19.61;61.55;99960.11;130346;1268;108929;-74
2022/06/19 01:23:28;;;;;;;4.40;4.00;;;;;;;19.66;61.50;99964.83;130315;1268;108628;-75
2022/06/19 01:26:35;;;;;;;;;;;;;;;19.68;61.51;99972.16;130384;1268;108801;-74
2022/06/19 01:29:41;;;;;;;4.70;3.80;;;;;;;19.66;62.13;99988.69;130320;1268;108886;-74
2022/06/19 01:32:50;;;;;;;6.30;4.20;;;;;;;19.54;62.92;99996.30;130371;1268;108688;-74
2022/06/19 01:35:57;;;;;;;4.10;3.70;;;;;;;19.43;62.14;99989.41;130348;1268;108937;-74
2022/06/19 01:39:04;;;;;;;6.50;4.50;;;;;;;19.41;62.22;99997.63;130366;1268;108691;-74
2022/06/19 01:42:11;;;;;;;5.30;4.40;;;;;;;19.35;62.56;100005.90;130316;1268;109171;-75
2022/06/19 01:45:17;;;;;;;4.10;3.70;;;;;;;19.31;62.35;99994.44;130310;1268;108349;-74
2022/06/19 01:48:25;;;;;;;6.30;4.80;;;;;;;19.27;62.46;99997.17;130296;1268;108847;-74
2022/06/19 01:51:31;;;;;;;6.90;3.40;;;;;;;19.20;62.48;100001.73;130329;1268;108928;-76
2022/06/19 01:54:44;;;;;;;4.50;3.70;;;;;;;19.19;62.58;100008.20;130323;1268;108168;-74
2022/06/19 01:57:53;;;;;;;3.60;3.30;;;;;;;19.20;62.80;100008.20;130330;1268;108823;-75
2022/06/19 02:00:59;;;;;;;5.90;4.10;;;;;;;19.17;62.69;100007.66;130364;1268;108764;-75
2022/06/19 02:04:06;;;;;;;5.90;4.10;;;;;;;19.14;62.90;100001.48;130343;1268;108627;-75
2022/06/19 02:07:14;;;;;;;5.20;4.00;;;;;;;19.11;63.01;100003.36;130369;1268;108690;-75
2022/06/19 02:10:19;;;;;;;4.10;3.60;;;;;;;19.05;63.17;100000.73;130327;1268;108737;-74
2022/06/19 02:13:26;;;;;;;4.50;4.00;;;;;;;18.99;63.20;100000.46;130335;1268;108619;-76
2022/06/19 02:16:35;;;;;;;4.70;4.00;;;;;;;18.93;63.10;99997.20;130311;1268;108880;-74
2022/06/19 02:19:40;;;;;;;4.60;4.20;;;;;;;18.85;63.45;99989.78;130422;1267;109325;-74
2022/06/19 02:22:46;;;;;;;4.40;3.80;;;;;;;18.78;63.51;99983.92;130357;1268;108707;-74
2022/06/19 02:25:52;;;;;;;6.70;3.90;;;;;;;18.68;63.60;99986.40;130248;1268;108699;-74
2022/06/19 02:28:58;;;;;;;5.20;3.90;;;;;;;18.61;64.26;99989.88;130358;1268;108792;-74
2022/06/19 02:32:05;;;;;;;4.90;3.80;;;;;;;18.45;64.08;99973.63;130333;1268;108835;-74
2022/06/19 02:35:16;;;;;;;5.00;4.10;;;;;;;18.46;64.36;99973.79;130389;1268;108478;-74
2022/06/19 02:38:22;;;;;;;4.80;4.20;;;;;;;18.42;64.20;99965.79;130341;1268;108739;-75
2022/06/19 02:41:34;;;;;;;5.20;4.30;;;;;;;18.45;64.50;99971.67;130295;1267;108763;-75
2022/06/19 02:44:42;;;;;;;4.20;3.80;;;;;;;18.36;64.40;99974.19;130347;1268;108573;-74
2022/06/19 02:47:49;;;;;;;4.80;4.10;;;;;;;18.35;64.44;99967.66;130146;1268;215668;-74
2022/06/19 02:50:55;;;;;;;4.60;4.10;;;;;;;18.32;64.61;99969.21;130390;1268;108889;-74
2022/06/19 02:54:01;;;;;;;4.70;3.70;;;;;;;18.29;64.73;99970.99;130296;1268;108622;-74
2022/06/19 02:57:07;;;;;;;4.40;4.00;;;;;;;18.30;64.74;99965.92;130236;1268;108724;-75
2022/06/19 03:00:18;;;;;;;5.00;3.30;;;;;;;18.32;64.99;99962.89;130335;1268;108779;-75
2022/06/19 03:03:28;;;;;;;6.10;3.80;;;;;;;18.37;64.97;99965.04;130398;1268;108641;-74
2022/06/19 03:06:33;;;;;;;5.80;3.80;;;;;;;18.46;65.07;99954.00;130306;1268;108738;-74
2022/06/19 03:09:38;;;;;;;4.40;3.60;;;;;;;18.56;65.08;99956.52;130285;1268;107225;-74
2022/06/19 03:12:44;;;;;;;3.70;3.40;;;;;;;18.65;65.07;99951.44;130355;1268;108615;-74
2022/06/19 03:15:58;;;;;;;5.50;4.10;;;;;;;18.74;65.09;99945.02;130342;1268;108796;-73
2022/06/19 03:19:04;;;;;;;4.90;4.10;;;;;;;18.85;65.16;99941.80;130338;1267;108809;-74
2022/06/19 03:22:09;;;;;;;5.30;4.80;;;;;;;18.97;65.15;99947.73;130335;1268;108681;-74
2022/06/19 03:25:14;;;;;;;4.70;4.30;;;;;;;19.09;65.15;99944.66;130237;1268;107681;-74
2022/06/19 03:28:20;;;;;;;4.30;3.80;;;;;;;19.22;65.06;99934.69;130164;1268;108955;-75
2022/06/19 03:31:27;;;;;;;4.40;3.60;;;;;;;19.36;65.05;99930.45;130270;1268;108522;-74
2022/06/19 03:34:33;;;;;;;5.00;3.90;;;;;;;19.52;65.02;99920.70;130288;1268;108922;-75
2022/06/19 03:37:39;;;;;;;3.90;3.50;;;;;;;19.71;65.04;99926.48;130361;1268;108779;-75
2022/06/19 03:40:44;;;;;;;5.20;3.80;;;;;;;19.93;64.94;99922.27;130315;1268;108907;-75
2022/06/19 03:43:49;;;;;;;4.90;4.10;;;;;;;20.11;64.68;99913.29;130337;1268;109001;-74
2022/06/19 03:46:54;;;;;;;4.80;4.00;;;;;;;20.28;64.53;99916.45;130295;1267;108689;-74
2022/06/19 03:50:00;;;;;;;4.40;3.90;;;;;;;20.41;64.40;99915.31;130330;1268;108931;-74
2022/06/19 03:53:05;;;;;;;5.90;4.20;;;;;;;20.53;64.42;99916.38;130325;1268;108945;-75
2022/06/19 03:56:16;;;;;;;4.10;3.70;;;;;;;20.65;64.30;99914.27;130355;1268;108660;-75
2022/06/19 03:59:21;;;;;;;4.00;3.50;;;;;;;20.75;64.03;99913.71;130337;1268;108913;-74
2022/06/19 04:02:26;;;;;;;3.90;3.50;;;;;;;20.85;63.98;99909.16;130354;1268;108870;-76
2022/06/19 04:05:32;;;;;;;6.40;3.90;;;;;;;21.00;63.95;99907.45;130338;1268;107950;-73
2022/06/19 04:08:37;;;;;;;5.80;3.90;;;;;;;21.14;63.91;99904.41;130331;1268;109087;-73
2022/06/19 04:11:44;;;;;;;4.30;3.60;;;;;;;21.28;63.84;99903.63;130291;1268;108870;-74
2022/06/19 04:14:50;;;;;;;3.70;3.20;;;;;;;21.46;63.66;99902.03;130307;1268;108834;-76
2022/06/19 04:17:56;;;;;;;3.70;3.30;;;;;;;21.63;63.67;99901.38;130325;1268;106968;-76
2022/06/19 04:21:03;;;;;;;4.40;3.70;;;;;;;21.84;63.55;99898.98;130243;1268;108638;-75
2022/06/19 04:24:10;;;;;;;6.40;3.50;;;;;;;22.02;63.23;99890.81;130263;1268;109454;-76
2022/06/19 04:27:15;;;;;;;4.70;3.60;;;;;;;22.15;63.01;99888.60;130282;1267;108880;-75
2022/06/19 04:30:21;;;;;;;4.20;3.60;;;;;;;22.27;63.03;99886.21;130296;1268;108630;-76
2022/06/19 04:33:26;;;;;;;3.90;3.50;;;;;;;22.37;62.91;99885.90;130306;1268;106892;-76
2022/06/19 04:36:32;;;;;;;5.40;4.10;;;;;;;22.44;62.78;99888.48;130292;1268;107321;-75
2022/06/19 04:39:37;;;;;;;4.00;3.60;;;;;;;22.54;62.66;99891.86;130311;1268;108681;-76
2022/06/19 04:42:43;;;;;;;3.90;3.40;;;;;;;22.68;62.40;99888.52;130293;1268;109720;-76
2022/06/19 04:45:48;;;;;;;4.30;3.40;;;;;;;22.79;62.34;99884.23;130296;1268;108726;-76
2022/06/19 04:48:54;;;;;;;3.60;3.30;;;;;;;22.90;62.22;99882.96;130300;1267;108922;-75
2022/06/19 04:51:59;;;;;;;4.80;3.60;;;;;;;23.01;61.97;99887.64;130286;1268;108714;-75
2022/06/19 04:55:05;;;;;;;4.10;3.50;;;;;;;23.14;61.92;99891.71;130322;1268;108125;-76
2022/06/19 04:58:11;;;;;;;4.30;3.40;;;;;;;23.27;61.78;99892.16;130320;1267;108667;-76
2022/06/19 05:01:25;;;;;;;4.10;3.40;;;;;;;23.40;61.83;99889.42;130307;1268;108954;-76
2022/06/19 05:04:30;;;;;;;4.10;3.40;;;;;;;23.53;61.49;99883.64;130332;1267;108667;-76
2022/06/19 05:07:35;;;;;;;3.50;3.20;;;;;;;23.65;61.31;99884.66;130329;1267;108768;-74
2022/06/19 05:10:41;;;;;;;4.90;3.70;;;;;;;23.76;61.28;99882.66;130270;1268;108882;-75
2022/06/19 05:13:46;;;;;;;3.50;3.20;;;;;;;23.92;60.89;99880.40;130285;1267;108737;-75
2022/06/19 05:16:51;;;;;;;4.90;3.00;;;;;;;24.03;60.83;99878.02;130282;1267;108893;-75
2022/06/19 05:19:56;;;;;;;3.50;3.20;;;;;;;24.11;60.74;99871.52;130295;1268;108762;-75
2022/06/19 05:23:01;;;;;;;3.30;3.00;;;;;;;24.22;60.64;99864.68;130276;1268;108808;-75
2022/06/19 05:26:10;;;;;;;3.10;2.80;;;;;;;24.29;60.45;99858.27;130309;1268;108858;-76
2022/06/19 05:29:15;;;;;;;5.10;3.20;;;;;;;24.36;60.25;99860.00;130317;1267;108637;-76
2022/06/19 05:32:20;;;;;;;3.40;3.00;;;;;;;24.46;60.14;99851.34;130277;1268;107190;-76
2022/06/19 05:35:25;;;;;;;4.60;3.10;;;;;;;24.54;59.98;99848.52;130339;1267;108625;-76
2022/06/19 05:38:32;;;;;;;4.10;3.10;;;;;;;24.62;59.72;99844.30;130342;1268;108031;-76
2022/06/19 05:41:40;;;;;;;3.90;3.10;;;;;;;24.73;59.73;99839.39;130358;1268;108807;-76
2022/06/19 05:44:45;;;;;;;5.70;3.20;;;;;;;24.83;59.59;99830.65;130288;1268;108793;-76
2022/06/19 05:47:50;;;;;;;3.60;2.90;;;;;;;24.88;59.20;99832.13;130290;1267;108846;-76
2022/06/19 05:51:05;;;;;;;4.20;3.00;;;;;;;24.93;59.20;99838.61;130322;1267;107660;-76
2022/06/19 05:54:11;;;;;;;4.90;3.00;;;;;;;25.02;59.15;99837.34;130271;1268;107663;-76
2022/06/19 05:57:16;;;;;;;4.10;3.10;;;;;;;25.10;58.82;99836.81;130276;1267;108676;-76
2022/06/19 06:00:22;;;;;;;4.80;3.20;;;;;;;25.15;58.59;99840.19;130288;1268;108694;-76
2022/06/19 06:03:28;;;;;;;5.30;2.90;;;;;;;25.21;58.38;99851.38;130300;1268;108751;-75
2022/06/19 06:06:33;;;;;;;6.70;2.70;;;;;;;25.25;58.34;99851.33;130274;1268;108767;-76
2022/06/19 06:09:39;;;;;;;2.90;2.70;;;;;;;25.34;58.18;99853.36;130180;1267;108752;-76
2022/06/19 06:12:44;;;;;;;3.30;2.70;;;;;;;25.40;57.90;99854.52;130308;1268;108947;-76
2022/06/19 06:15:50;;;;;;;3.60;2.90;;;;;;;25.44;57.84;99850.84;130338;1268;108824;-75
2022/06/19 06:18:55;;;;;;;3.20;2.80;;;;;;;25.49;57.72;99848.90;130302;1267;107804;-75
2022/06/19 06:22:03;;;;;;;3.00;2.60;;;;;;;25.52;57.44;99838.42;130276;1268;108923;-75
2022/06/19 06:25:11;;;;;;;3.60;2.80;;;;;;;25.53;57.63;99836.52;130317;1268;108025;-75
2022/06/19 06:28:16;;;;;;;4.30;3.00;;;;;;;25.57;57.30;99832.62;130315;1268;108807;-72
2022/06/19 06:31:22;;;;;;;3.00;2.70;;;;;;;25.60;57.16;99831.98;130340;1267;108695;-73
2022/06/19 06:34:27;;;;;;;5.40;3.00;;;;;;;25.63;57.14;99830.30;130348;1268;109298;-73
2022/06/19 06:37:32;;;;;;;3.40;3.10;;;;;;;25.68;57.06;99833.13;130325;1268;108969;-72
2022/06/19 06:40:38;;;;;;;3.00;2.80;;;;;;;25.70;57.01;99834.51;130327;1268;108457;-72
2022/06/19 06:43:46;;;;;;;3.20;2.70;;;;;;;25.73;56.66;99830.20;130345;1268;108672;-72
2022/06/19 06:46:51;;;;;;;3.10;2.80;;;;;;;25.75;56.72;99827.21;130285;1268;108667;-72
2022/06/19 06:49:56;;;;;;;5.20;2.80;;;;;;;25.82;56.44;99827.91;130295;1268;108708;-73
2022/06/19 06:53:01;;;;;;;4.20;2.90;;;;;;;25.88;56.32;99824.45;130521;1267;108651;-73
2022/06/19 06:56:08;;;;;;;4.00;2.60;;;;;;;25.94;56.28;99817.77;130388;1267;108784;-73
2022/06/19 06:59:13;;;;;;;4.40;3.00;;;;;;;26.05;56.26;99816.36;130307;1268;108664;-72
2022/06/19 07:02:18;;;;;;;5.00;2.80;;;;;;;26.11;55.85;99814.85;130277;1268;108938;-72
2022/06/19 07:05:23;;;;;;;3.90;2.70;;;;;;;26.18;55.97;99811.71;130316;1268;108918;-72
2022/06/19 07:08:29;;;;;;;3.00;2.60;;;;;;;26.26;56.08;99811.67;130298;1268;108586;-73
2022/06/19 07:11:37;;;;;;;2.90;2.60;;;;;;;26.32;55.62;99807.71;130285;1268;108890;-73
2022/06/19 07:14:42;;;;;;;4.50;2.60;;;;;;;26.38;55.45;99807.51;130269;1267;108946;-72
2022/06/19 07:17:48;;;;;;;3.80;3.10;;;;;;;26.42;55.40;99802.55;130324;1267;108854;-73
2022/06/19 07:20:53;;;;;;;4.70;3.00;;;;;;;26.49;55.23;99789.54;130341;1268;108576;-73
2022/06/19 07:23:58;;;;;;;3.10;2.70;;;;;;;26.54;55.27;99785.51;130289;1267;108887;-74
2022/06/19 07:27:03;;;;;;;3.20;2.80;;;;;;;26.62;55.06;99787.96;130307;1268;108747;-73
2022/06/19 07:30:14;;;;;;;3.50;2.90;;;;;;;26.68;54.97;99794.21;130273;1266;108147;-73
2022/06/19 07:33:20;;;;;;;3.90;2.90;;;;;;;26.74;54.63;99796.79;130327;1267;108885;-73
2022/06/19 07:36:27;;;;;;;4.30;2.90;;;;;;;26.79;54.64;99792.30;130300;1267;107598;-73
2022/06/19 07:39:33;;;;;;;4.20;2.70;;;;;;;26.86;54.21;99795.60;130290;1267;108902;-73
2022/06/19 07:42:38;;;;;;;3.20;2.70;;;;;;;26.95;54.24;99793.24;130276;1268;108743;-73
2022/06/19 07:45:44;;;;;;;2.80;2.50;;;;;;;27.00;54.16;99794.23;130378;1267;107695;-73
2022/06/19 07:52:13;;;;;;;4.20;2.70;;;;;;;27.12;54.03;99793.65;130354;1267;108566;-73
2022/06/19 07:55:21;;;;;;;2.90;2.50;;;;;;;27.17;53.65;99789.48;130347;1267;108466;-73
2022/06/19 07:58:26;;;;;;;3.60;2.60;;;;;;;27.22;53.66;99789.10;130398;1268;108777;-73
2022/06/19 08:01:32;;;;;;;5.00;2.40;;;;;;;27.30;53.81;99793.38;130308;1267;107686;-73
2022/06/19 08:04:37;;;;;;;4.80;3.20;;;;;;;27.40;53.91;99798.91;130349;1267;108944;-73
2022/06/19 08:07:42;;;;;;;7.50;2.90;;;;;;;27.47;53.46;99800.92;130336;1268;108432;-72
2022/06/19 08:10:50;;;;;;;5.80;2.60;;;;;;;27.52;53.54;99803.55;130394;1268;108819;-72
2022/06/19 08:13:56;;;;;;;4.10;2.90;;;;;;;27.62;53.58;99801.27;130400;1268;108616;-72
2022/06/19 08:17:01;;;;;;;3.90;2.50;;;;;;;27.70;53.27;99800.55;130350;1267;108695;-72
2022/06/19 08:20:09;;;;;;;2.70;2.50;;;;;;;27.78;52.98;99796.91;130329;1268;107716;-73
2022/06/19 08:23:15;;;;;;;4.70;2.50;;;;;;;27.85;52.95;99795.14;130412;1268;108757;-73
2022/06/19 08:26:20;;;;;;;8.30;2.70;;;;;;;27.93;52.93;99790.04;130356;1268;108753;-72
2022/06/19 08:29:26;;;;;;;7.40;2.60;;;;;;;28.01;53.03;99788.41;130325;1267;108879;-72
2022/06/19 08:32:31;;;;;;;4.30;2.50;;;;;;;28.10;52.79;99781.75;130284;1268;108865;-72
2022/06/19 08:35:42;;;;;;;4.30;2.50;;;;;;;28.19;52.82;99777.80;130326;1268;108973;-72
2022/06/19 08:38:52;;;;;;;3.70;2.30;;;;;;;28.28;52.73;99777.77;130353;1267;108819;-72
2022/06/19 08:42:23;;;;;;;3.50;2.60;;;;;;;28.34;52.18;99782.45;130310;1268;107646;-72
2022/06/19 08:45:44;;;;;;;3.40;2.30;;;;;;;28.43;52.20;99786.08;130317;1268;108779;-72
2022/06/19 08:49:03;;;;;;;4.60;2.70;;;;;;;28.50;51.96;99785.48;130278;1268;108884;-72
2022/06/19 08:52:21;;;;;;;4.70;2.60;;;;;;;28.55;51.81;99784.83;130311;1267;108987;-73
2022/06/19 08:55:37;;;;;;;4.60;2.40;;;;;;;28.63;51.92;99780.16;130280;1268;108774;-73
2022/06/19 08:58:50;;;;;;;2.80;2.30;;;;;;;28.68;51.51;99779.86;130350;1268;108672;-73
2022/06/19 09:02:06;;;;;;;4.50;2.20;;;;;;;28.72;50.88;99776.70;130347;1268;108529;-72
2022/06/19 09:05:44;;;;;;;5.90;2.50;;;;;;;28.77;50.69;99776.27;130369;1268;108854;-73
2022/06/19 09:09:21;;;;;;;4.90;2.20;;;;;;;28.81;50.66;99778.60;130342;1268;107674;-73
2022/06/19 09:12:40;;;;;;;4.10;2.20;;;;;;;28.82;50.03;99775.63;130329;1268;108735;-72
2022/06/19 09:15:53;;;;;;;3.00;2.40;;;;;;;28.88;50.12;99776.96;130354;1268;107737;-72
2022/06/19 09:19:06;;;;;;;4.60;2.40;;;;;;;28.94;50.19;99772.84;130331;1268;108683;-73
2022/06/19 09:22:26;;;;;;;3.30;2.50;;;;;;;29.02;50.10;99767.73;130330;1267;108884;-73
2022/06/19 09:25:45;;;;;;;4.80;2.50;;;;;;;29.11;50.25;99764.65;130360;1267;108494;-73
2022/06/19 09:28:56;;;;;;;4.70;2.70;;;;;;;29.17;49.96;99761.36;130364;1268;108694;-72
2022/06/19 09:32:07;;;;;;;4.70;2.40;;;;;;;29.21;49.66;99753.30;130320;1268;108651;-73
2022/06/19 09:35:17;;;;;;;3.30;2.20;;;;;;;29.26;49.64;99754.36;130357;1267;108677;-73
2022/06/19 09:38:29;;;;;;;3.20;2.20;;;;;;;29.31;49.75;99748.98;130332;1267;108976;-72
2022/06/19 09:41:41;;;;;;;4.10;2.30;;;;;;;29.39;49.32;99745.98;130411;1268;107479;-72
2022/06/19 09:44:54;;;;;;;4.70;2.40;;;;;;;29.42;48.85;99741.83;130395;1267;109546;-72
2022/06/19 09:48:08;;;;;;;5.30;2.20;;;;;;;29.48;48.77;99740.61;130317;1267;108849;-72
2022/06/19 09:51:19;;;;;;;3.90;2.20;;;;;;;29.53;48.59;99739.24;130346;1267;107707;-72
2022/06/19 09:54:32;;;;;;;5.00;2.80;;;;;;;29.58;48.43;99733.34;130368;1268;108662;-71
2022/06/19 09:57:44;;;;;;;2.50;2.10;;;;;;;29.64;48.23;99732.45;130353;1268;108782;-72
2022/06/19 10:00:55;;;;;;;3.30;2.10;;;;;;;29.68;47.94;99728.99;130328;1268;108812;-72
2022/06/19 10:04:02;;;;;;;;;;;;;;;29.71;47.61;99725.22;130361;1267;108799;-72
2022/06/19 10:07:16;;;;;;;2.30;2.10;;;;;;;29.69;46.86;99715.55;130335;1268;108746;-71
2022/06/19 10:10:30;;;;;;;3.50;2.40;;;;;;;29.75;47.36;99713.33;130322;1267;108687;-73
2022/06/19 10:13:40;;;;;;;3.50;2.30;;;;;;;29.83;47.22;99714.92;130347;1267;108703;-72
2022/06/19 10:16:51;;;;;;;5.70;2.40;;;;;;;29.89;46.70;99712.89;130374;1267;108804;-74
2022/06/19 10:20:01;;;;;;;;;;;;;;;29.95;46.67;99712.73;130397;1267;108714;-71
2022/06/19 10:23:20;;;;;;;5.20;2.20;;;;;;;29.99;46.54;99708.19;130396;1268;108661;-71
2022/06/19 10:26:38;;;;;;;5.30;2.40;;;;;;;30.04;46.75;99702.55;130415;1267;109098;-71
2022/06/19 10:29:56;;;;;;;4.80;2.20;;;;;;;30.12;46.52;99703.88;130364;1268;107866;-72
2022/06/19 10:33:18;;;;;;;4.20;2.20;;;;;;;30.16;46.37;99696.45;130382;1267;108831;-72
2022/06/19 10:36:39;;;;;;;5.30;2.30;;;;;;;30.18;45.61;99690.85;130394;1267;108821;-72
2022/06/19 10:39:59;;;;;;;4.40;2.10;;;;;;;30.19;45.61;99684.66;130364;1267;108708;-72
2022/06/19 10:43:14;;;;;;;4.00;1.90;;;;;;;30.22;45.36;99678.38;130513;1268;109666;-71
2022/06/19 10:46:19;;;;;;;3.20;2.10;;;;;;;30.26;45.42;99679.40;130412;1267;108983;-72
2022/06/19 10:49:33;;;;;;;7.20;2.20;;;;;;;30.32;45.27;99672.49;130398;1268;108936;-72
2022/06/19 10:52:48;;;;;;;4.90;2.00;;;;;;;30.36;45.29;99667.05;130367;1267;108886;-72
2022/06/19 10:56:02;;;;;;;6.80;1.90;;;;;;;30.38;44.49;99665.54;130373;1268;107100;-72
2022/06/19 10:59:08;;;;;;;3.50;1.90;;;;;;;30.40;44.46;99664.13;130373;1267;108611;-71
2022/06/19 11:05:53;;;;;;;2.50;2.00;;;;;;;30.40;43.85;99658.69;130408;1267;108713;-71
2022/06/19 11:09:05;;;;;;;7.70;2.40;;;;;;;30.43;43.99;99655.01;130433;1267;108961;-71
2022/06/19 11:12:19;;;;;;;5.20;2.00;;;;;;;30.49;44.15;99655.23;130369;1268;107662;-71
2022/06/19 11:15:31;;;;;;;4.20;1.90;;;;;;;30.53;43.75;99651.96;130402;1267;108964;-71
2022/06/19 11:18:48;;;;;;;3.10;1.70;;;;;;;30.59;43.56;99653.58;130421;1267;108882;-71
2022/06/19 11:21:53;;;;;;;3.60;2.00;;;;;;;30.62;43.28;99647.48;130375;1267;107700;-73
2022/06/19 11:25:30;;;;;;;4.90;2.10;;;;;;;30.63;42.89;99653.24;130405;1268;108853;-74
2022/06/19 11:28:48;;;;;;;4.60;2.10;;;;;;;30.66;42.56;99648.00;130430;1267;108860;-72
2022/06/19 11:32:11;;;;;;;5.00;2.10;;;;;;;30.68;42.41;99648.04;130460;1267;108632;-73
2022/06/19 11:35:16;;;;;;;3.80;1.90;;;;;;;30.69;42.32;99642.28;130431;1268;109094;-73
2022/06/19 11:38:38;;;;;;;3.90;2.20;;;;;;;30.72;42.70;99643.81;130448;1268;108838;-72
2022/06/19 11:41:43;;;;;;;3.50;2.10;;;;;;;30.77;42.32;99639.34;130401;1267;108779;-71
2022/06/19 11:44:55;;;;;;;4.00;2.10;;;;;;;30.78;42.24;99637.11;130462;1268;108790;-71
2022/06/19 11:48:10;;;;;;;5.70;1.90;;;;;;;30.79;42.43;99634.39;130434;1267;108632;-71
2022/06/19 11:51:22;;;;;;;3.30;2.10;;;;;;;30.83;42.15;99628.76;130485;1267;109188;-71
2022/06/19 11:54:31;;;;;;;3.00;2.20;;;;;;;30.85;42.09;99627.63;130437;1267;108879;-71
2022/06/19 11:57:36;;;;;;;4.10;2.00;;;;;;;30.86;41.52;99629.13;130468;1268;107466;-71
2022/06/19 12:00:43;;;;;;;3.60;2.10;;;;;;;30.86;41.53;99622.75;130420;1268;108861;-72
2022/06/19 12:03:52;;;;;;;3.00;1.90;;;;;;;30.87;41.75;99617.13;130465;1267;108639;-72
2022/06/19 12:07:01;;;;;;;4.10;2.30;;;;;;;30.89;41.70;99615.39;130434;1267;108948;-75
2022/06/19 12:10:23;;;;;;;6.00;2.10;;;;;;;30.92;41.44;99619.59;130387;1268;109122;-73
2022/06/19 12:13:32;;;;;;;3.80;2.10;;;;;;;30.93;40.83;99614.12;130423;1268;108765;-74
2022/06/19 12:16:38;;;;;;;5.00;2.30;;;;;;;30.96;40.69;99611.46;130437;1267;108679;-73
2022/06/19 12:19:52;;;;;;;4.70;2.00;;;;;;;30.99;40.97;99609.55;130396;1268;108680;-71
2022/06/19 12:23:01;;;;;;;3.70;2.00;;;;;;;31.00;41.09;99597.77;130426;1268;108770;-72
2022/06/19 12:26:12;;;;;;;4.80;2.50;;;;;;;31.03;41.03;99595.89;130568;1268;109079;-72
2022/06/19 12:29:26;;;;;;;5.60;2.30;;;;;;;31.05;40.89;99597.41;130461;1267;108773;-72
2022/06/19 12:32:37;;;;;;;3.00;2.00;;;;;;;31.07;40.82;99596.75;130406;1268;108697;-72
2022/06/19 12:35:48;;;;;;;4.70;2.20;;;;;;;31.09;40.45;99599.63;130507;1268;109100;-72
2022/06/19 12:38:52;;;;;;;;;;;;;;;31.09;40.84;99595.17;130471;1268;108816;-71
2022/06/19 12:42:03;;;;;;;4.30;2.10;;;;;;;31.10;40.79;99583.59;130422;1268;108874;-72
2022/06/19 12:45:14;;;;;;;;;;;;;;;31.10;40.80;99581.93;130471;1267;108943;-72
2022/06/19 12:48:34;;;;;;;5.10;2.80;;;;;;;31.10;41.00;99576.04;130431;1268;108858;-72
2022/06/19 12:51:51;;;;;;;6.50;3.10;;;;;;;31.13;40.95;99571.73;130434;1268;108972;-72
2022/06/19 12:55:16;;;;;;;7.50;3.00;;;;;;;31.19;41.22;99573.16;130458;1268;108690;-72
2022/06/19 12:58:41;;;;;;;3.70;2.50;;;;;;;31.20;40.78;99563.37;130468;1268;108641;-72
2022/06/19 13:01:55;;;;;;;7.20;4.60;;;;;;;31.20;40.79;99561.27;130447;1268;108703;-72
2022/06/19 13:05:11;;;;;;;7.70;6.10;;;;;;;31.20;40.78;99546.52;130435;1267;108957;-71
2022/06/19 13:08:29;;;;;;;10.10;5.60;;;;;;;31.21;40.72;99543.73;130464;1267;108691;-72
2022/06/19 13:11:48;;;;;;;5.70;4.80;;;;;;;31.19;40.78;99540.85;130430;1268;108729;-71
2022/06/19 13:15:09;;;;;;;9.40;6.10;;;;;;;31.20;40.91;99534.81;130498;1267;108937;-71
2022/06/19 13:18:20;;;;;;;4.60;3.40;;;;;;;31.22;40.58;99529.39;130517;1268;109153;-71
2022/06/19 13:21:37;;;;;;;4.20;2.80;;;;;;;31.24;40.65;99524.09;130450;1267;108946;-71
2022/06/19 13:24:50;;;;;;;3.80;3.00;;;;;;;31.23;40.78;99514.13;130461;1267;108876;-73
2022/06/19 13:28:10;;;;;;;6.10;2.80;;;;;;;31.22;40.59;99514.34;130446;1268;108610;-71
2022/06/19 13:31:22;;;;;;;3.90;2.70;;;;;;;31.22;40.66;99509.32;130478;1268;108658;-71
2022/06/19 13:34:38;;;;;;;5.30;3.00;;;;;;;31.23;40.49;99502.84;130432;1267;108651;-71
2022/06/19 13:38:00;;;;;;;7.50;2.60;;;;;;;31.24;40.73;99498.51;130401;1267;109170;-71
2022/06/19 13:41:16;;;;;;;4.80;2.50;;;;;;;31.23;40.41;99499.54;130444;1268;108760;-71
2022/06/19 13:44:39;;;;;;;6.00;2.80;;;;;;;31.19;40.13;99494.83;130425;1268;108818;-70
2022/06/19 13:47:50;;;;;;;4.50;2.40;;;;;;;31.19;40.25;99482.64;130428;1268;108764;-71
2022/06/19 13:51:01;;;;;;;4.10;2.60;;;;;;;31.21;40.48;99477.43;130449;1267;108729;-71
2022/06/19 13:54:15;;;;;;;5.10;2.50;;;;;;;31.23;40.36;99474.28;130416;1267;108754;-71
2022/06/19 13:57:31;;;;;;;4.40;2.40;;;;;;;31.22;39.82;99467.14;130461;1267;108670;-71
2022/06/19 14:00:47;;;;;;;7.00;2.30;;;;;;;31.17;39.69;99457.45;130484;1268;109313;-71
2022/06/19 14:08:05;;;;;;;7.10;2.80;;;;;;;31.13;39.37;99445.02;130423;1268;108838;-72
2022/06/19 14:11:16;;;;;;;7.40;3.00;;;;;;;31.12;39.64;99431.38;130449;1268;108863;-71
2022/06/19 14:14:38;;;;;;;4.60;2.00;;;;;;;31.14;39.39;99436.75;130405;1267;108778;-71
2022/06/19 14:17:55;;;;;;;4.60;2.30;;;;;;;31.13;39.30;99434.27;130454;1268;109000;-71
2022/06/19 14:21:12;;;;;;;6.70;2.60;;;;;;;31.10;39.19;99426.13;130420;1268;107618;-71
2022/06/19 14:24:26;;;;;;;6.60;2.40;;;;;;;31.08;39.09;99429.22;130421;1268;108753;-71
2022/06/19 14:27:48;;;;;;;5.10;2.50;;;;;;;31.07;39.03;99425.48;130485;1268;108717;-71
2022/06/19 14:30:57;;;;;;;7.20;3.30;;;;;;;31.05;39.01;99426.48;130424;1267;108825;-71
2022/06/19 14:34:02;;;;;;;7.40;3.70;;;;;;;31.03;38.74;99425.69;130465;1268;108649;-72
2022/06/19 14:37:35;;;;;;;5.70;3.60;;;;;;;31.01;38.88;99422.98;130504;1267;108820;-71
2022/06/19 14:41:03;;;;;;;5.70;2.70;;;;;;;30.99;38.79;99414.98;130465;1268;107730;-71
2022/06/19 14:44:16;;;;;;;6.60;3.20;;;;;;;30.99;39.03;99412.02;130485;1267;108888;-71